Time;durP1;ratioP1;P1;durP2;ratioP2;P2;SDS_P1;SDS_P2;PMS_P1;PMS_P2;Temp;Humidity;BMP_temperature;BMP_pressure;BME280_temperature;BME280_humidity;BME280_pressure;Samples;Min_cycle;Max_cycle;Signal;HPM_P1;HPM_P2
2022/12/11 00:01:17;;;;;;;27.90;17.00;;;;;;;;;;5059202;28;20198;-65
2022/12/11 00:03:44;;;;;;;29.17;17.13;;;;;;;;;;5058207;28;20202;-65
2022/12/11 00:06:12;;;;;;;29.40;16.87;;;;;;;;;;5054318;28;20213;-66
2022/12/11 00:08:41;;;;;;;30.57;17.83;;;;;;;;;;5058316;28;20203;-66
2022/12/11 00:11:09;;;;;;;25.87;16.40;;;;;;;;;;5056496;28;20234;-65
2022/12/11 00:13:36;;;;;;;25.47;16.20;;;;;;;;;;5052882;28;20199;-65
2022/12/11 00:16:03;;;;;;;25.23;16.63;;;;;;;;;;5056836;28;20203;-66
2022/12/11 00:18:30;;;;;;;23.03;15.17;;;;;;;;;;5054218;28;20204;-66
2022/12/11 00:21:01;;;;;;;27.17;16.00;;;;;;;;;;5055676;28;20213;-65
2022/12/11 00:23:28;;;;;;;25.77;16.13;;;;;;;;;;5059869;28;20218;-65
2022/12/11 00:25:57;;;;;;;22.93;14.47;;;;;;;;;;5053667;28;20199;-65
2022/12/11 00:28:24;;;;;;;27.57;16.77;;;;;;;;;;5051988;28;20196;-66
2022/12/11 00:30:51;;;;;;;25.63;16.23;;;;;;;;;;5061086;28;20229;-65
2022/12/11 00:33:18;;;;;;;22.70;14.93;;;;;;;;;;5051828;28;20208;-66
2022/12/11 00:35:46;;;;;;;23.13;15.40;;;;;;;;;;5052092;28;20203;-65
2022/12/11 00:38:15;;;;;;;25.17;15.93;;;;;;;;;;5055877;28;20203;-66
2022/12/11 00:40:42;;;;;;;26.17;15.90;;;;;;;;;;5053871;28;20207;-65
2022/12/11 00:43:10;;;;;;;25.53;16.73;;;;;;;;;;5055278;28;20242;-65
2022/12/11 00:45:38;;;;;;;30.67;18.10;;;;;;;;;;5056007;28;20203;-65
2022/12/11 00:48:05;;;;;;;29.13;16.90;;;;;;;;;;5054139;28;20226;-65
2022/12/11 00:50:33;;;;;;;28.67;17.40;;;;;;;;;;5057098;28;20231;-65
2022/12/11 00:53:00;;;;;;;28.93;17.90;;;;;;;;;;5054269;28;20205;-65
2022/12/11 00:55:28;;;;;;;25.73;16.07;;;;;;;;;;5056419;28;20199;-65
2022/12/11 00:57:55;;;;;;;29.70;16.93;;;;;;;;;;5058826;28;20211;-65
2022/12/11 01:00:23;;;;;;;29.80;18.23;;;;;;;;;;5054863;28;20210;-65
2022/12/11 01:02:51;;;;;;;28.00;17.00;;;;;;;;;;5053530;28;20226;-65
2022/12/11 01:05:18;;;;;;;28.53;17.43;;;;;;;;;;5059655;28;20203;-65
2022/12/11 01:07:45;;;;;;;26.10;15.50;;;;;;;;;;5054917;28;20206;-65
2022/12/11 01:12:58;;;;;;;29.47;17.57;;;;;;;;;;5052743;28;20290;-65
2022/12/11 01:15:28;;;;;;;27.27;16.00;;;;;;;;;;5060364;28;20203;-66
2022/12/11 01:17:55;;;;;;;26.70;15.97;;;;;;;;;;5055801;28;20210;-66
2022/12/11 01:20:23;;;;;;;24.93;15.83;;;;;;;;;;5052756;28;20203;-66
2022/12/11 01:22:52;;;;;;;30.43;17.67;;;;;;;;;;5054198;28;20211;-67
2022/12/11 01:25:19;;;;;;;29.20;16.07;;;;;;;;;;5055430;28;20220;-66
2022/12/11 01:27:46;;;;;;;28.23;16.83;;;;;;;;;;5051663;28;20218;-66
2022/12/11 01:30:14;;;;;;;26.37;16.10;;;;;;;;;;5053911;28;20202;-67
2022/12/11 01:32:42;;;;;;;30.13;17.03;;;;;;;;;;5053297;28;20269;-66
2022/12/11 01:35:10;;;;;;;25.47;16.13;;;;;;;;;;5060002;28;20221;-67
2022/12/11 01:37:37;;;;;;;25.33;15.33;;;;;;;;;;5056348;28;20209;-67
2022/12/11 01:40:05;;;;;;;24.70;15.53;;;;;;;;;;5056102;28;20209;-67
2022/12/11 01:42:35;;;;;;;25.07;15.80;;;;;;;;;;5054956;28;20242;-67
2022/12/11 01:45:26;;;;;;;24.20;15.77;;;;;;;;;;5057250;28;20216;-67
2022/12/11 01:47:57;;;;;;;27.83;17.63;;;;;;;;;;5057616;28;20214;-66
2022/12/11 01:50:25;;;;;;;27.83;15.17;;;;;;;;;;5052415;28;20195;-67
2022/12/11 01:52:52;;;;;;;26.57;15.77;;;;;;;;;;5054762;28;20204;-66
2022/12/11 01:55:19;;;;;;;26.63;16.20;;;;;;;;;;5057612;28;20204;-65
2022/12/11 01:57:48;;;;;;;24.93;15.40;;;;;;;;;;5053432;28;20298;-65
2022/12/11 02:00:15;;;;;;;27.53;16.47;;;;;;;;;;5056002;28;20210;-65
2022/12/11 02:02:43;;;;;;;25.40;15.33;;;;;;;;;;5059491;28;20203;-65
2022/12/11 02:05:11;;;;;;;24.37;16.07;;;;;;;;;;5055055;28;20229;-67
2022/12/11 02:07:39;;;;;;;27.10;16.57;;;;;;;;;;5060735;28;20203;-67
2022/12/11 02:10:07;;;;;;;26.60;16.40;;;;;;;;;;5057182;28;20210;-67
2022/12/11 02:12:39;;;;;;;29.03;16.50;;;;;;;;;;5058030;28;20223;-67
2022/12/11 02:15:11;;;;;;;28.00;15.93;;;;;;;;;;5057346;28;20207;-67
2022/12/11 02:17:41;;;;;;;25.23;15.30;;;;;;;;;;5056757;28;20196;-66
2022/12/11 02:20:11;;;;;;;24.87;14.70;;;;;;;;;;5058379;28;20203;-65
2022/12/11 02:22:50;;;;;;;25.37;16.03;;;;;;;;;;5061975;28;20191;-66
2022/12/11 02:25:21;;;;;;;27.17;16.27;;;;;;;;;;5057471;28;20194;-66
2022/12/11 02:27:55;;;;;;;26.83;15.70;;;;;;;;;;5056274;28;20199;-65
2022/12/11 02:30:24;;;;;;;24.70;15.10;;;;;;;;;;5058198;28;20260;-65
2022/12/11 02:32:55;;;;;;;25.57;15.07;;;;;;;;;;5060094;28;20235;-65
2022/12/11 02:35:24;;;;;;;24.07;15.30;;;;;;;;;;5062585;28;20211;-65
2022/12/11 02:37:54;;;;;;;23.93;14.90;;;;;;;;;;5056403;28;20214;-66
2022/12/11 02:40:23;;;;;;;25.07;15.20;;;;;;;;;;5057366;28;20212;-66
2022/12/11 02:42:51;;;;;;;25.57;15.80;;;;;;;;;;5060398;28;20237;-66
2022/12/11 02:45:19;;;;;;;22.50;16.30;;;;;;;;;;5060072;28;20208;-65
2022/12/11 02:47:48;;;;;;;24.93;15.57;;;;;;;;;;5056720;28;20203;-66
2022/12/11 02:50:18;;;;;;;27.60;16.80;;;;;;;;;;5059701;28;20210;-65
2022/12/11 02:52:46;;;;;;;29.43;17.93;;;;;;;;;;5057155;28;20227;-66
2022/12/11 02:55:15;;;;;;;27.53;17.20;;;;;;;;;;5057504;28;20200;-66
2022/12/11 02:57:45;;;;;;;31.17;17.23;;;;;;;;;;5061074;28;20572;-66
2022/12/11 03:00:13;;;;;;;26.87;16.17;;;;;;;;;;5054427;28;20203;-66
2022/12/11 03:02:41;;;;;;;25.97;15.87;;;;;;;;;;5055840;28;20205;-66
2022/12/11 03:05:10;;;;;;;24.13;14.33;;;;;;;;;;5060648;28;20226;-66
2022/12/11 03:07:38;;;;;;;26.27;15.60;;;;;;;;;;5056681;28;20210;-66
2022/12/11 03:10:06;;;;;;;32.70;18.10;;;;;;;;;;5054957;28;20203;-66
2022/12/11 03:12:34;;;;;;;25.67;15.67;;;;;;;;;;5057066;28;20223;-66
2022/12/11 03:15:04;;;;;;;29.10;17.00;;;;;;;;;;5061479;28;20222;-66
2022/12/11 03:17:35;;;;;;;31.47;17.00;;;;;;;;;;5056787;28;20211;-66
2022/12/11 03:20:05;;;;;;;24.73;16.43;;;;;;;;;;5058628;28;20199;-66
2022/12/11 03:22:38;;;;;;;25.27;15.70;;;;;;;;;;5055917;28;20202;-66
2022/12/11 03:25:07;;;;;;;28.73;15.67;;;;;;;;;;5057224;28;20210;-67
2022/12/11 03:27:37;;;;;;;28.23;16.63;;;;;;;;;;5057683;28;20302;-66
2022/12/11 03:30:06;;;;;;;26.97;16.23;;;;;;;;;;5056391;28;20207;-66
2022/12/11 03:32:37;;;;;;;25.73;15.80;;;;;;;;;;5059674;28;20220;-66
2022/12/11 03:35:08;;;;;;;24.20;14.97;;;;;;;;;;5053388;28;20230;-66
2022/12/11 03:37:37;;;;;;;27.57;16.67;;;;;;;;;;5059163;28;20203;-66
2022/12/11 03:40:07;;;;;;;28.23;16.80;;;;;;;;;;5051998;28;20203;-66
2022/12/11 03:42:34;;;;;;;27.07;16.33;;;;;;;;;;5057831;28;20238;-66
2022/12/11 03:45:03;;;;;;;30.00;16.50;;;;;;;;;;5056095;28;20240;-66
2022/12/11 03:47:30;;;;;;;28.60;15.63;;;;;;;;;;5053092;28;20199;-66
2022/12/11 03:49:59;;;;;;;25.27;15.37;;;;;;;;;;5056288;28;20225;-66
2022/12/11 03:52:27;;;;;;;26.53;16.13;;;;;;;;;;5060167;28;20219;-66
2022/12/11 03:54:57;;;;;;;29.07;15.73;;;;;;;;;;5056385;28;20211;-66
2022/12/11 03:57:26;;;;;;;25.83;15.87;;;;;;;;;;5055991;28;20195;-66
2022/12/11 03:59:53;;;;;;;27.73;17.00;;;;;;;;;;5056118;28;20210;-66
2022/12/11 04:02:20;;;;;;;26.77;16.60;;;;;;;;;;5055924;28;20214;-66
2022/12/11 04:04:47;;;;;;;25.23;16.00;;;;;;;;;;5056844;28;20209;-66
2022/12/11 04:07:15;;;;;;;27.77;16.07;;;;;;;;;;5053585;28;20223;-66
2022/12/11 04:09:42;;;;;;;24.87;15.17;;;;;;;;;;5054504;28;20214;-66
2022/12/11 04:12:10;;;;;;;25.97;15.83;;;;;;;;;;5053554;28;20290;-66
2022/12/11 04:25:33;;;;;;;24.67;13.87;;;;;;;;;;5055205;28;20256;-65
2022/12/11 04:28:01;;;;;;;23.57;14.70;;;;;;;;;;5062676;28;20228;-65
2022/12/11 04:30:28;;;;;;;25.20;14.47;;;;;;;;;;5057202;28;20203;-65
2022/12/11 04:32:56;;;;;;;27.53;14.53;;;;;;;;;;5053042;28;20211;-67
2022/12/11 04:35:23;;;;;;;25.20;14.57;;;;;;;;;;5054599;28;20210;-67
2022/12/11 04:37:50;;;;;;;24.57;14.53;;;;;;;;;;5056065;28;20225;-66
2022/12/11 04:40:18;;;;;;;24.43;14.17;;;;;;;;;;5048176;28;20211;-66
2022/12/11 04:42:45;;;;;;;22.20;14.00;;;;;;;;;;5061159;28;20231;-67
2022/12/11 04:45:14;;;;;;;24.43;15.10;;;;;;;;;;5052732;28;20211;-67
2022/12/11 04:47:42;;;;;;;23.40;14.03;;;;;;;;;;5058155;28;20302;-67
2022/12/11 04:50:10;;;;;;;20.73;13.27;;;;;;;;;;5056001;28;20374;-66
2022/12/11 04:52:37;;;;;;;22.00;12.60;;;;;;;;;;5059103;28;20223;-67
2022/12/11 04:55:04;;;;;;;21.00;13.63;;;;;;;;;;5054631;28;20226;-67
2022/12/11 04:57:31;;;;;;;19.20;12.60;;;;;;;;;;5054044;28;20203;-67
2022/12/11 05:00:00;;;;;;;25.83;14.60;;;;;;;;;;5059971;28;20200;-67
2022/12/11 05:02:29;;;;;;;25.50;14.87;;;;;;;;;;5058354;28;20191;-67
2022/12/11 05:04:56;;;;;;;23.27;13.10;;;;;;;;;;5055471;28;20195;-67
2022/12/11 05:07:23;;;;;;;23.57;13.50;;;;;;;;;;5053407;28;20199;-67
2022/12/11 05:09:50;;;;;;;20.90;13.07;;;;;;;;;;5049907;28;20211;-67
2022/12/11 05:12:17;;;;;;;24.60;14.40;;;;;;;;;;5048084;28;20210;-67
2022/12/11 05:14:45;;;;;;;24.20;13.97;;;;;;;;;;5047691;28;20233;-67
2022/12/11 05:17:12;;;;;;;20.13;13.03;;;;;;;;;;5050870;28;20214;-65
2022/12/11 05:19:40;;;;;;;20.33;12.77;;;;;;;;;;5048886;28;20410;-65
2022/12/11 05:22:07;;;;;;;22.60;13.63;;;;;;;;;;5048796;28;20228;-66
2022/12/11 05:24:35;;;;;;;21.50;13.40;;;;;;;;;;5051502;28;20203;-65
2022/12/11 05:27:02;;;;;;;22.70;13.63;;;;;;;;;;5057107;28;20214;-65
2022/12/11 05:29:29;;;;;;;20.03;12.97;;;;;;;;;;5051669;28;20211;-66
2022/12/11 05:31:56;;;;;;;19.93;12.67;;;;;;;;;;5048627;28;20318;-66
2022/12/11 05:34:23;;;;;;;19.63;13.17;;;;;;;;;;5048184;28;20207;-65
2022/12/11 05:36:52;;;;;;;23.07;13.27;;;;;;;;;;5047937;28;20238;-66
2022/12/11 05:39:19;;;;;;;19.23;12.50;;;;;;;;;;5046952;28;20217;-65
2022/12/11 05:41:46;;;;;;;18.47;11.97;;;;;;;;;;5047832;28;20412;-65
2022/12/11 05:44:14;;;;;;;22.17;13.37;;;;;;;;;;5050294;28;20211;-65
2022/12/11 05:46:41;;;;;;;22.90;13.03;;;;;;;;;;5051250;28;20196;-67
2022/12/11 05:49:08;;;;;;;20.17;13.53;;;;;;;;;;5054096;28;20204;-65
2022/12/11 05:51:35;;;;;;;20.83;12.67;;;;;;;;;;5054594;28;20706;-67
2022/12/11 05:54:05;;;;;;;20.13;12.27;;;;;;;;;;5051081;28;20211;-67
2022/12/11 05:56:33;;;;;;;20.27;12.97;;;;;;;;;;5052415;28;20211;-66
2022/12/11 05:59:01;;;;;;;22.80;12.87;;;;;;;;;;5054679;28;20274;-66
2022/12/11 06:01:29;;;;;;;21.23;12.90;;;;;;;;;;5051510;28;20203;-67
2022/12/11 06:03:57;;;;;;;21.37;12.70;;;;;;;;;;5053686;28;20201;-66
2022/12/11 06:06:25;;;;;;;18.23;12.03;;;;;;;;;;5053180;28;20210;-67
2022/12/11 06:08:52;;;;;;;19.23;11.83;;;;;;;;;;5051960;28;20217;-66
2022/12/11 06:11:21;;;;;;;18.83;12.40;;;;;;;;;;5052315;28;20229;-67
2022/12/11 06:13:51;;;;;;;21.40;12.47;;;;;;;;;;5052976;28;20225;-66
2022/12/11 06:16:18;;;;;;;25.07;13.60;;;;;;;;;;5050778;28;20385;-66
2022/12/11 06:18:45;;;;;;;20.37;11.53;;;;;;;;;;5057777;28;20260;-66
2022/12/11 06:21:13;;;;;;;20.33;12.30;;;;;;;;;;5055272;28;20214;-65
2022/12/11 06:23:41;;;;;;;19.17;12.03;;;;;;;;;;5057938;28;20199;-65
2022/12/11 06:26:08;;;;;;;22.80;13.63;;;;;;;;;;5058293;28;20220;-66
2022/12/11 06:28:37;;;;;;;24.03;13.73;;;;;;;;;;5060570;28;20199;-65
2022/12/11 06:31:05;;;;;;;23.57;13.97;;;;;;;;;;5057854;28;20210;-66
2022/12/11 06:33:32;;;;;;;26.00;14.73;;;;;;;;;;5049946;28;20301;-65
2022/12/11 06:36:02;;;;;;;23.47;13.43;;;;;;;;;;5052518;28;20207;-65
2022/12/11 06:38:29;;;;;;;25.87;14.17;;;;;;;;;;5050409;28;20207;-65
2022/12/11 06:40:56;;;;;;;23.10;14.00;;;;;;;;;;5053350;28;20214;-65
2022/12/11 06:43:23;;;;;;;24.30;14.43;;;;;;;;;;5053448;28;20244;-65
2022/12/11 06:45:52;;;;;;;24.47;14.70;;;;;;;;;;5055504;28;20200;-65
2022/12/11 06:48:19;;;;;;;25.33;14.57;;;;;;;;;;5053691;28;20199;-65
2022/12/11 06:50:46;;;;;;;26.70;15.47;;;;;;;;;;5056172;28;20254;-65
2022/12/11 06:53:14;;;;;;;24.37;14.30;;;;;;;;;;5060779;28;20208;-65
2022/12/11 06:55:42;;;;;;;23.73;14.10;;;;;;;;;;5057871;28;20284;-65
2022/12/11 06:58:09;;;;;;;27.47;14.83;;;;;;;;;;5061355;28;20207;-65
2022/12/11 07:00:37;;;;;;;26.47;15.50;;;;;;;;;;5056606;28;20202;-65
2022/12/11 07:03:05;;;;;;;23.63;14.27;;;;;;;;;;5055252;28;20207;-65
2022/12/11 07:05:33;;;;;;;25.67;15.23;;;;;;;;;;5057616;28;20203;-65
2022/12/11 07:08:00;;;;;;;24.23;14.80;;;;;;;;;;5058279;28;20213;-65
2022/12/11 07:10:27;;;;;;;25.30;13.90;;;;;;;;;;5058855;28;20298;-65
2022/12/11 07:12:54;;;;;;;22.73;13.50;;;;;;;;;;5062196;28;20225;-65
2022/12/11 07:15:22;;;;;;;33.47;17.83;;;;;;;;;;5059483;28;20217;-66
2022/12/11 07:17:49;;;;;;;29.30;15.17;;;;;;;;;;5053490;28;20207;-65
2022/12/11 07:20:17;;;;;;;26.07;15.77;;;;;;;;;;5051040;28;20204;-65
2022/12/11 07:22:44;;;;;;;31.53;15.87;;;;;;;;;;5052809;28;20210;-65
2022/12/11 07:25:12;;;;;;;28.63;15.33;;;;;;;;;;5052112;28;20213;-65
2022/12/11 07:27:39;;;;;;;26.63;15.17;;;;;;;;;;5054286;28;20198;-66
2022/12/11 07:30:06;;;;;;;28.93;15.47;;;;;;;;;;5053977;28;20203;-66
2022/12/11 07:32:34;;;;;;;30.50;17.00;;;;;;;;;;5055710;28;20248;-65
2022/12/11 07:35:01;;;;;;;26.30;15.33;;;;;;;;;;5054516;28;20218;-65
2022/12/11 07:37:29;;;;;;;25.47;14.63;;;;;;;;;;5052485;28;20226;-66
2022/12/11 07:39:56;;;;;;;30.70;16.00;;;;;;;;;;5054083;28;20422;-65
2022/12/11 07:42:23;;;;;;;21.43;12.90;;;;;;;;;;5051900;28;20234;-65
2022/12/11 07:44:51;;;;;;;22.67;13.20;;;;;;;;;;5058371;28;20222;-66
2022/12/11 07:47:18;;;;;;;25.47;14.03;;;;;;;;;;5062752;28;20206;-66
2022/12/11 07:49:45;;;;;;;25.00;13.63;;;;;;;;;;5060752;28;20199;-66
2022/12/11 07:52:12;;;;;;;25.10;13.30;;;;;;;;;;5055658;28;20214;-65
2022/12/11 07:54:40;;;;;;;27.03;13.90;;;;;;;;;;5057202;28;20202;-66
2022/12/11 07:57:08;;;;;;;25.40;13.90;;;;;;;;;;5058436;28;20221;-65
2022/12/11 07:59:35;;;;;;;25.90;13.93;;;;;;;;;;5053379;28;20256;-65
2022/12/11 08:02:02;;;;;;;25.07;13.83;;;;;;;;;;5048383;28;20209;-66
2022/12/11 08:04:29;;;;;;;25.30;12.97;;;;;;;;;;5051593;28;20191;-68
2022/12/11 08:06:56;;;;;;;26.13;13.77;;;;;;;;;;5056885;28;20203;-67
2022/12/11 08:09:23;;;;;;;20.20;11.67;;;;;;;;;;5052031;28;20213;-68
2022/12/11 08:11:52;;;;;;;23.37;13.80;;;;;;;;;;5052091;28;20262;-68
2022/12/11 08:14:19;;;;;;;19.87;12.30;;;;;;;;;;5055624;28;20279;-67
2022/12/11 08:16:47;;;;;;;26.47;13.37;;;;;;;;;;5052193;28;20206;-68
2022/12/11 08:19:14;;;;;;;24.23;12.80;;;;;;;;;;5051062;28;20225;-67
2022/12/11 08:21:41;;;;;;;21.53;11.07;;;;;;;;;;5054704;28;20302;-67
2022/12/11 08:24:09;;;;;;;17.73;11.03;;;;;;;;;;5056966;28;20229;-67
2022/12/11 08:26:36;;;;;;;16.00;10.23;;;;;;;;;;5055047;28;20210;-68
2022/12/11 08:29:05;;;;;;;19.90;11.60;;;;;;;;;;5054015;28;20203;-68
2022/12/11 08:31:32;;;;;;;20.60;12.30;;;;;;;;;;5055653;28;20203;-67
2022/12/11 08:33:59;;;;;;;18.23;11.60;;;;;;;;;;5056030;28;20219;-66
2022/12/11 08:36:26;;;;;;;17.93;11.10;;;;;;;;;;5058947;28;20195;-67
2022/12/11 08:38:55;;;;;;;19.93;10.87;;;;;;;;;;5054930;28;20198;-66
2022/12/11 08:41:22;;;;;;;22.27;11.50;;;;;;;;;;5057493;28;20200;-66
2022/12/11 08:43:51;;;;;;;20.10;12.40;;;;;;;;;;5056988;28;20227;-67
2022/12/11 08:46:20;;;;;;;20.93;12.27;;;;;;;;;;5055971;28;20195;-67
2022/12/11 08:48:47;;;;;;;21.53;13.20;;;;;;;;;;5067385;28;20209;-67
2022/12/11 08:51:17;;;;;;;17.83;11.50;;;;;;;;;;5058136;28;20465;-67
2022/12/11 08:53:44;;;;;;;22.83;12.93;;;;;;;;;;5054478;28;20227;-67
2022/12/11 08:56:12;;;;;;;21.60;12.33;;;;;;;;;;5054239;28;20204;-67
2022/12/11 08:58:39;;;;;;;21.90;12.87;;;;;;;;;;5055367;28;20202;-67
2022/12/11 09:01:08;;;;;;;19.27;11.40;;;;;;;;;;5062113;28;20206;-67
2022/12/11 09:03:37;;;;;;;22.07;12.33;;;;;;;;;;5058262;28;20194;-67
2022/12/11 09:06:05;;;;;;;22.87;12.77;;;;;;;;;;5056436;28;20214;-67
2022/12/11 09:08:32;;;;;;;19.17;11.13;;;;;;;;;;5062094;28;20284;-67
2022/12/11 09:11:03;;;;;;;18.60;11.20;;;;;;;;;;5063276;28;20211;-67
2022/12/11 09:13:30;;;;;;;21.67;12.03;;;;;;;;;;5059896;28;20221;-67
2022/12/11 09:15:57;;;;;;;18.80;11.50;;;;;;;;;;5056563;28;20241;-67
2022/12/11 09:18:24;;;;;;;20.23;11.73;;;;;;;;;;5064125;28;20209;-67
2022/12/11 09:20:59;;;;;;;19.07;10.90;;;;;;;;;;5064021;28;20526;-67
2022/12/11 09:23:26;;;;;;;19.87;11.70;;;;;;;;;;5061275;28;20205;-67
2022/12/11 09:25:54;;;;;;;18.77;10.60;;;;;;;;;;5066691;28;20489;-67
2022/12/11 09:28:21;;;;;;;18.73;10.83;;;;;;;;;;5062057;28;20217;-67
2022/12/11 09:30:48;;;;;;;19.87;11.00;;;;;;;;;;5056533;28;20199;-67
2022/12/11 09:33:15;;;;;;;19.97;11.03;;;;;;;;;;5060581;28;20226;-66
2022/12/11 09:35:43;;;;;;;17.93;10.57;;;;;;;;;;5065099;28;20206;-67
2022/12/11 09:38:11;;;;;;;17.30;10.87;;;;;;;;;;5063866;28;20619;-67
2022/12/11 09:40:42;;;;;;;18.23;10.27;;;;;;;;;;5057370;28;20206;-66
2022/12/11 09:43:15;;;;;;;16.23;9.80;;;;;;;;;;5059216;28;20227;-66
2022/12/11 09:45:42;;;;;;;18.17;10.57;;;;;;;;;;5063816;28;20202;-66
2022/12/11 09:48:10;;;;;;;18.20;10.57;;;;;;;;;;5063519;28;20211;-67
2022/12/11 09:50:37;;;;;;;16.60;10.10;;;;;;;;;;5058723;28;20203;-66
2022/12/11 09:53:08;;;;;;;17.30;11.20;;;;;;;;;;5059788;28;20226;-67
2022/12/11 09:55:43;;;;;;;18.17;11.23;;;;;;;;;;5060651;28;20224;-67
2022/12/11 09:58:15;;;;;;;19.57;11.23;;;;;;;;;;5059441;28;20207;-66
2022/12/11 10:00:44;;;;;;;18.63;11.03;;;;;;;;;;5059897;28;20204;-67
2022/12/11 10:03:24;;;;;;;20.47;11.13;;;;;;;;;;5059535;28;20200;-66
2022/12/11 10:05:56;;;;;;;19.07;10.67;;;;;;;;;;5062975;28;20209;-67
2022/12/11 10:08:28;;;;;;;17.07;10.47;;;;;;;;;;5062040;28;20206;-66
2022/12/11 10:11:00;;;;;;;17.97;11.17;;;;;;;;;;5060442;28;20250;-67
2022/12/11 10:13:31;;;;;;;18.57;11.47;;;;;;;;;;5063098;28;20238;-67
2022/12/11 10:16:00;;;;;;;20.10;10.77;;;;;;;;;;5063254;28;20203;-66
2022/12/11 10:18:28;;;;;;;15.77;9.97;;;;;;;;;;5062735;28;20204;-66
2022/12/11 10:20:55;;;;;;;19.63;11.23;;;;;;;;;;5064014;28;20280;-67
2022/12/11 10:23:25;;;;;;;20.00;11.33;;;;;;;;;;5056767;28;20199;-66
2022/12/11 10:25:54;;;;;;;21.33;10.80;;;;;;;;;;5055908;28;20202;-67
2022/12/11 10:28:23;;;;;;;21.07;12.20;;;;;;;;;;5061418;28;20203;-66
2022/12/11 10:30:56;;;;;;;18.97;11.17;;;;;;;;;;5060073;28;20196;-66
2022/12/11 10:33:27;;;;;;;19.33;11.30;;;;;;;;;;5059620;28;20216;-66
2022/12/11 10:35:56;;;;;;;17.57;11.50;;;;;;;;;;5057777;28;20203;-67
2022/12/11 10:38:26;;;;;;;15.97;10.50;;;;;;;;;;5055896;28;20210;-66
2022/12/11 10:40:55;;;;;;;16.13;9.83;;;;;;;;;;5057100;28;20204;-67
2022/12/11 10:43:34;;;;;;;18.80;11.73;;;;;;;;;;5058337;28;20223;-66
2022/12/11 10:46:01;;;;;;;17.53;10.63;;;;;;;;;;5056718;28;20196;-65
2022/12/11 10:48:28;;;;;;;19.03;10.60;;;;;;;;;;5061914;28;20226;-66
2022/12/11 10:50:57;;;;;;;19.70;11.07;;;;;;;;;;5058100;28;20196;-66
2022/12/11 10:53:25;;;;;;;20.93;11.63;;;;;;;;;;5058608;28;20223;-66
2022/12/11 10:55:52;;;;;;;19.47;11.93;;;;;;;;;;5059322;28;20200;-66
2022/12/11 10:58:20;;;;;;;22.63;12.57;;;;;;;;;;5057381;28;20264;-67
2022/12/11 11:00:58;;;;;;;20.20;11.73;;;;;;;;;;5061994;28;20206;-67
2022/12/11 11:03:27;;;;;;;20.03;11.67;;;;;;;;;;5058854;28;20199;-66
2022/12/11 11:06:02;;;;;;;19.53;10.87;;;;;;;;;;5064089;28;20269;-66
2022/12/11 11:08:38;;;;;;;17.33;10.23;;;;;;;;;;5056265;28;20199;-66
2022/12/11 11:11:07;;;;;;;19.50;10.70;;;;;;;;;;5055920;28;20210;-67
2022/12/11 11:13:35;;;;;;;18.80;11.20;;;;;;;;;;5058636;28;20222;-67
2022/12/11 11:16:04;;;;;;;19.77;11.03;;;;;;;;;;5056803;28;20200;-67
2022/12/11 11:18:32;;;;;;;17.13;10.00;;;;;;;;;;5056939;28;20222;-66
2022/12/11 11:20:59;;;;;;;19.07;11.23;;;;;;;;;;5055545;28;20209;-65
2022/12/11 11:23:27;;;;;;;17.77;10.23;;;;;;;;;;5058165;28;20207;-67
2022/12/11 11:25:55;;;;;;;18.47;11.17;;;;;;;;;;5059340;28;20227;-67
2022/12/11 11:28:24;;;;;;;19.17;11.00;;;;;;;;;;5059096;28;20287;-67
2022/12/11 11:30:59;;;;;;;16.97;10.77;;;;;;;;;;5059771;28;20242;-66
2022/12/11 11:33:28;;;;;;;20.23;11.27;;;;;;;;;;5068653;28;20208;-66
2022/12/11 11:35:56;;;;;;;17.57;10.40;;;;;;;;;;5054819;28;20209;-67
2022/12/11 11:38:25;;;;;;;17.80;10.60;;;;;;;;;;5060911;28;20206;-66
2022/12/11 11:40:55;;;;;;;18.10;11.13;;;;;;;;;;5053900;28;20199;-67
2022/12/11 11:43:33;;;;;;;17.13;11.03;;;;;;;;;;5057491;28;20230;-66
2022/12/11 11:46:01;;;;;;;23.63;12.17;;;;;;;;;;5057174;28;20199;-66
2022/12/11 11:48:34;;;;;;;19.27;11.40;;;;;;;;;;5056989;28;20209;-66
2022/12/11 11:51:04;;;;;;;22.77;12.60;;;;;;;;;;5057882;28;20211;-67
2022/12/11 11:53:36;;;;;;;22.13;12.00;;;;;;;;;;5054348;28;20203;-66
2022/12/11 11:56:07;;;;;;;24.20;13.07;;;;;;;;;;5057607;28;20200;-67
2022/12/11 11:58:38;;;;;;;21.20;11.83;;;;;;;;;;5059727;28;20199;-67
2022/12/11 12:01:05;;;;;;;21.37;12.30;;;;;;;;;;5059173;28;20211;-67
2022/12/11 12:03:34;;;;;;;20.27;11.70;;;;;;;;;;5057460;28;20238;-67
2022/12/11 12:06:05;;;;;;;18.60;11.77;;;;;;;;;;5056495;28;20199;-66
2022/12/11 12:08:39;;;;;;;19.07;11.77;;;;;;;;;;5062792;28;20205;-66
2022/12/11 12:11:10;;;;;;;21.70;12.60;;;;;;;;;;5055280;28;20218;-67
2022/12/11 12:13:42;;;;;;;20.87;12.00;;;;;;;;;;5059677;28;20227;-66
2022/12/11 12:16:11;;;;;;;20.10;11.27;;;;;;;;;;5056353;28;20207;-67
2022/12/11 12:18:42;;;;;;;19.13;12.30;;;;;;;;;;5059825;28;20201;-66
2022/12/11 12:21:11;;;;;;;19.97;11.20;;;;;;;;;;5062537;28;20198;-66
2022/12/11 12:23:45;;;;;;;17.77;10.33;;;;;;;;;;5059435;28;20203;-67
2022/12/11 12:26:15;;;;;;;19.10;10.50;;;;;;;;;;5064997;28;20199;-67
2022/12/11 12:28:50;;;;;;;23.57;12.47;;;;;;;;;;5059188;28;20204;-67
2022/12/11 12:31:25;;;;;;;17.87;10.87;;;;;;;;;;5058256;28;20231;-66
2022/12/11 12:33:58;;;;;;;19.47;11.37;;;;;;;;;;5057313;28;20271;-66
2022/12/11 12:36:28;;;;;;;20.07;11.53;;;;;;;;;;5054070;28;20207;-66
2022/12/11 12:38:59;;;;;;;20.30;11.27;;;;;;;;;;5058214;28;20199;-66
2022/12/11 12:41:32;;;;;;;22.23;12.90;;;;;;;;;;5059420;28;20222;-67
2022/12/11 12:44:16;;;;;;;22.23;12.40;;;;;;;;;;5058302;28;20318;-67
2022/12/11 12:46:58;;;;;;;21.63;12.20;;;;;;;;;;5055486;28;20209;-66
2022/12/11 12:49:33;;;;;;;18.00;10.73;;;;;;;;;;5056055;28;20203;-67
2022/12/11 12:52:01;;;;;;;21.60;12.23;;;;;;;;;;5053667;28;20199;-66
2022/12/11 12:54:29;;;;;;;18.80;11.13;;;;;;;;;;5053064;28;20223;-66
2022/12/11 12:56:57;;;;;;;21.63;12.13;;;;;;;;;;5057703;28;20203;-66
2022/12/11 12:59:24;;;;;;;21.87;12.77;;;;;;;;;;5059080;28;20227;-67
2022/12/11 13:01:55;;;;;;;19.63;12.00;;;;;;;;;;5063573;28;20209;-66
2022/12/11 13:04:37;;;;;;;18.67;11.57;;;;;;;;;;5056927;28;20249;-66
2022/12/11 13:07:15;;;;;;;21.47;12.73;;;;;;;;;;5055161;28;20206;-66
2022/12/11 13:09:42;;;;;;;23.00;12.60;;;;;;;;;;5059358;28;20217;-67
2022/12/11 13:12:14;;;;;;;22.60;12.17;;;;;;;;;;5053560;28;20203;-66
2022/12/11 13:14:41;;;;;;;20.23;11.20;;;;;;;;;;5055052;28;20231;-67
2022/12/11 13:17:23;;;;;;;19.73;11.50;;;;;;;;;;5054520;28;20206;-67
2022/12/11 13:19:56;;;;;;;19.60;11.83;;;;;;;;;;5064654;28;20192;-66
2022/12/11 13:22:24;;;;;;;20.67;12.87;;;;;;;;;;5068526;28;20210;-67
2022/12/11 13:24:58;;;;;;;20.43;12.00;;;;;;;;;;5062345;28;20199;-67
2022/12/11 13:27:26;;;;;;;17.87;11.20;;;;;;;;;;5064532;28;20225;-67
2022/12/11 13:30:04;;;;;;;18.70;10.80;;;;;;;;;;5060497;28;20195;-66
2022/12/11 13:32:32;;;;;;;19.60;11.37;;;;;;;;;;5059027;28;20206;-67
2022/12/11 13:35:04;;;;;;;17.77;11.40;;;;;;;;;;5065932;28;20230;-66
2022/12/11 13:37:33;;;;;;;17.13;11.60;;;;;;;;;;5063484;28;20205;-67
2022/12/11 13:40:01;;;;;;;19.00;11.50;;;;;;;;;;5068469;28;20202;-66
2022/12/11 13:42:30;;;;;;;20.93;11.77;;;;;;;;;;5059196;28;20253;-67
2022/12/11 13:44:57;;;;;;;18.73;12.60;;;;;;;;;;5056635;28;20203;-66
2022/12/11 13:47:25;;;;;;;22.83;13.30;;;;;;;;;;5055485;28;20202;-67
2022/12/11 13:49:55;;;;;;;21.13;13.33;;;;;;;;;;5056189;28;20203;-67
2022/12/11 13:52:26;;;;;;;23.17;13.70;;;;;;;;;;5059124;28;20209;-66
2022/12/11 13:54:54;;;;;;;22.03;12.73;;;;;;;;;;5059467;28;20227;-66
2022/12/11 13:57:24;;;;;;;22.07;13.43;;;;;;;;;;5065708;28;20202;-67
2022/12/11 13:59:52;;;;;;;21.57;11.97;;;;;;;;;;5054879;28;20203;-66
2022/12/11 14:02:21;;;;;;;18.83;12.17;;;;;;;;;;5056178;28;20207;-66
2022/12/11 14:04:50;;;;;;;21.87;13.17;;;;;;;;;;5063133;28;20206;-67
2022/12/11 14:07:20;;;;;;;22.27;14.20;;;;;;;;;;5064146;28;20306;-66
2022/12/11 14:09:49;;;;;;;24.77;14.03;;;;;;;;;;5066375;28;20211;-66
2022/12/11 14:12:17;;;;;;;19.43;13.57;;;;;;;;;;5060256;28;20221;-66
2022/12/11 14:14:47;;;;;;;21.73;13.70;;;;;;;;;;5065509;28;20230;-66
2022/12/11 14:17:15;;;;;;;24.70;14.10;;;;;;;;;;5059109;28;20207;-66
2022/12/11 14:19:46;;;;;;;25.53;15.53;;;;;;;;;;5060666;28;20199;-66
2022/12/11 14:22:18;;;;;;;22.73;14.10;;;;;;;;;;5061445;28;20209;-66
2022/12/11 14:24:50;;;;;;;19.40;12.67;;;;;;;;;;5061041;28;20195;-66
2022/12/11 14:27:18;;;;;;;22.07;13.20;;;;;;;;;;5058952;28;20217;-66
2022/12/11 14:29:45;;;;;;;24.33;13.63;;;;;;;;;;5071681;28;20203;-66
2022/12/11 14:32:17;;;;;;;24.50;14.50;;;;;;;;;;5063128;28;20199;-66
2022/12/11 14:34:46;;;;;;;23.40;13.63;;;;;;;;;;5059230;28;20215;-66
2022/12/11 14:37:14;;;;;;;25.23;13.87;;;;;;;;;;5064888;28;20202;-66
2022/12/11 14:39:45;;;;;;;22.50;13.33;;;;;;;;;;5058907;28;20210;-66